sensor_id;sensor_type;location;lat;lon;timestamp;P1;durP1;ratioP1;P2;durP2;ratioP2
73585;SDS011;61865;50.232;18.614;2023-02-18T00:00:47;6.60;;;3.67;;
73585;SDS011;61865;50.232;18.614;2023-02-18T00:03:09;5.15;;;3.30;;
73585;SDS011;61865;50.232;18.614;2023-02-18T00:05:31;7.38;;;3.25;;
73585;SDS011;61865;50.232;18.614;2023-02-18T00:07:53;5.65;;;3.05;;
73585;SDS011;61865;50.232;18.614;2023-02-18T00:10:16;4.60;;;3.00;;
73585;SDS011;61865;50.232;18.614;2023-02-18T00:12:38;4.22;;;2.50;;
73585;SDS011;61865;50.232;18.614;2023-02-18T00:15:00;4.28;;;2.45;;
73585;SDS011;61865;50.232;18.614;2023-02-18T00:17:22;3.35;;;2.30;;
73585;SDS011;61865;50.232;18.614;2023-02-18T00:19:44;3.83;;;2.65;;
73585;SDS011;61865;50.232;18.614;2023-02-18T00:22:06;4.85;;;2.78;;
73585;SDS011;61865;50.232;18.614;2023-02-18T00:24:28;4.95;;;2.70;;
73585;SDS011;61865;50.232;18.614;2023-02-18T00:26:51;4.60;;;2.58;;
73585;SDS011;61865;50.232;18.614;2023-02-18T00:29:13;3.75;;;2.55;;
73585;SDS011;61865;50.232;18.614;2023-02-18T00:31:35;5.32;;;2.67;;
73585;SDS011;61865;50.232;18.614;2023-02-18T00:33:59;6.85;;;2.90;;
73585;SDS011;61865;50.232;18.614;2023-02-18T00:36:22;5.70;;;2.72;;
73585;SDS011;61865;50.232;18.614;2023-02-18T00:38:44;3.78;;;2.40;;
73585;SDS011;61865;50.232;18.614;2023-02-18T00:41:07;5.30;;;2.85;;
73585;SDS011;61865;50.232;18.614;2023-02-18T00:43:30;4.13;;;2.70;;
73585;SDS011;61865;50.232;18.614;2023-02-18T00:45:52;4.10;;;2.80;;
73585;SDS011;61865;50.232;18.614;2023-02-18T00:48:14;6.72;;;3.53;;
73585;SDS011;61865;50.232;18.614;2023-02-18T00:50:36;4.97;;;3.20;;
73585;SDS011;61865;50.232;18.614;2023-02-18T00:52:58;4.97;;;3.25;;
73585;SDS011;61865;50.232;18.614;2023-02-18T00:55:20;4.82;;;3.20;;
73585;SDS011;61865;50.232;18.614;2023-02-18T00:57:42;5.22;;;3.42;;
73585;SDS011;61865;50.232;18.614;2023-02-18T01:00:06;6.15;;;3.20;;
73585;SDS011;61865;50.232;18.614;2023-02-18T01:02:29;4.43;;;2.80;;
73585;SDS011;61865;50.232;18.614;2023-02-18T01:04:51;5.07;;;2.83;;
73585;SDS011;61865;50.232;18.614;2023-02-18T01:07:13;4.15;;;2.72;;
73585;SDS011;61865;50.232;18.614;2023-02-18T01:09:35;8.52;;;3.00;;
73585;SDS011;61865;50.232;18.614;2023-02-18T01:11:57;3.33;;;2.58;;
73585;SDS011;61865;50.232;18.614;2023-02-18T01:14:18;4.85;;;2.83;;
73585;SDS011;61865;50.232;18.614;2023-02-18T01:16:42;4.68;;;2.67;;
73585;SDS011;61865;50.232;18.614;2023-02-18T01:19:04;4.82;;;2.38;;
73585;SDS011;61865;50.232;18.614;2023-02-18T01:21:26;3.50;;;2.40;;
73585;SDS011;61865;50.232;18.614;2023-02-18T01:23:48;7.53;;;3.50;;
73585;SDS011;61865;50.232;18.614;2023-02-18T01:26:09;4.97;;;2.88;;
73585;SDS011;61865;50.232;18.614;2023-02-18T01:28:32;6.40;;;2.95;;
73585;SDS011;61865;50.232;18.614;2023-02-18T01:30:54;3.90;;;2.30;;
73585;SDS011;61865;50.232;18.614;2023-02-18T01:33:17;4.07;;;2.55;;
73585;SDS011;61865;50.232;18.614;2023-02-18T01:35:40;7.72;;;2.75;;
73585;SDS011;61865;50.232;18.614;2023-02-18T01:38:02;5.63;;;2.40;;
73585;SDS011;61865;50.232;18.614;2023-02-18T01:40:25;3.60;;;2.17;;
73585;SDS011;61865;50.232;18.614;2023-02-18T01:42:48;3.70;;;2.20;;
73585;SDS011;61865;50.232;18.614;2023-02-18T01:48:08;5.15;;;2.22;;
73585;SDS011;61865;50.232;18.614;2023-02-18T01:50:35;4.80;;;2.25;;
73585;SDS011;61865;50.232;18.614;2023-02-18T01:53:00;3.65;;;2.53;;
73585;SDS011;61865;50.232;18.614;2023-02-18T01:55:22;4.20;;;2.25;;
73585;SDS011;61865;50.232;18.614;2023-02-18T01:57:44;6.40;;;2.50;;
73585;SDS011;61865;50.232;18.614;2023-02-18T02:00:07;5.07;;;2.22;;
73585;SDS011;61865;50.232;18.614;2023-02-18T02:02:31;7.55;;;2.20;;
73585;SDS011;61865;50.232;18.614;2023-02-18T02:04:57;6.90;;;2.40;;
73585;SDS011;61865;50.232;18.614;2023-02-18T02:07:21;2.17;;;1.67;;
73585;SDS011;61865;50.232;18.614;2023-02-18T02:09:44;3.97;;;1.75;;
73585;SDS011;61865;50.232;18.614;2023-02-18T02:12:12;3.85;;;2.17;;
73585;SDS011;61865;50.232;18.614;2023-02-18T02:14:58;5.68;;;2.10;;
73585;SDS011;61865;50.232;18.614;2023-02-18T02:17:41;3.75;;;2.25;;
73585;SDS011;61865;50.232;18.614;2023-02-18T02:23:26;3.20;;;2.10;;
73585;SDS011;61865;50.232;18.614;2023-02-18T02:26:28;5.13;;;2.20;;
73585;SDS011;61865;50.232;18.614;2023-02-18T02:29:17;4.63;;;2.20;;
73585;SDS011;61865;50.232;18.614;2023-02-18T02:32:05;4.43;;;2.10;;
73585;SDS011;61865;50.232;18.614;2023-02-18T02:34:45;3.63;;;2.20;;
73585;SDS011;61865;50.232;18.614;2023-02-18T02:39:37;4.50;;;2.40;;
73585;SDS011;61865;50.232;18.614;2023-02-18T02:42:06;6.57;;;2.60;;
73585;SDS011;61865;50.232;18.614;2023-02-18T02:44:38;5.57;;;2.65;;
73585;SDS011;61865;50.232;18.614;2023-02-18T02:47:07;5.47;;;2.65;;
73585;SDS011;61865;50.232;18.614;2023-02-18T02:49:33;5.93;;;2.42;;
73585;SDS011;61865;50.232;18.614;2023-02-18T02:52:04;6.82;;;2.35;;
73585;SDS011;61865;50.232;18.614;2023-02-18T02:54:30;5.72;;;2.80;;
73585;SDS011;61865;50.232;18.614;2023-02-18T02:57:03;5.15;;;2.70;;
73585;SDS011;61865;50.232;18.614;2023-02-18T02:59:27;4.60;;;2.72;;
73585;SDS011;61865;50.232;18.614;2023-02-18T03:01:53;6.13;;;3.00;;
73585;SDS011;61865;50.232;18.614;2023-02-18T03:04:30;5.70;;;2.92;;
73585;SDS011;61865;50.232;18.614;2023-02-18T03:07:12;3.92;;;2.88;;
73585;SDS011;61865;50.232;18.614;2023-02-18T03:09:42;5.65;;;3.00;;
73585;SDS011;61865;50.232;18.614;2023-02-18T03:12:18;4.78;;;2.85;;
73585;SDS011;61865;50.232;18.614;2023-02-18T03:14:48;5.43;;;3.10;;
73585;SDS011;61865;50.232;18.614;2023-02-18T03:17:19;4.53;;;3.10;;
73585;SDS011;61865;50.232;18.614;2023-02-18T03:19:46;4.50;;;3.45;;
73585;SDS011;61865;50.232;18.614;2023-02-18T03:22:15;6.93;;;3.28;;
73585;SDS011;61865;50.232;18.614;2023-02-18T03:24:42;4.05;;;2.80;;
73585;SDS011;61865;50.232;18.614;2023-02-18T03:27:08;4.50;;;2.72;;
73585;SDS011;61865;50.232;18.614;2023-02-18T03:29:34;4.28;;;2.88;;
73585;SDS011;61865;50.232;18.614;2023-02-18T03:31:58;4.30;;;2.85;;
73585;SDS011;61865;50.232;18.614;2023-02-18T03:34:24;5.13;;;2.80;;
73585;SDS011;61865;50.232;18.614;2023-02-18T03:36:49;5.97;;;2.50;;
73585;SDS011;61865;50.232;18.614;2023-02-18T03:39:14;3.63;;;2.47;;
73585;SDS011;61865;50.232;18.614;2023-02-18T03:41:38;5.05;;;2.30;;
73585;SDS011;61865;50.232;18.614;2023-02-18T03:44:00;4.45;;;2.10;;
73585;SDS011;61865;50.232;18.614;2023-02-18T03:46:25;2.95;;;2.20;;
73585;SDS011;61865;50.232;18.614;2023-02-18T03:48:47;2.60;;;2.13;;
73585;SDS011;61865;50.232;18.614;2023-02-18T03:51:09;3.40;;;1.90;;
73585;SDS011;61865;50.232;18.614;2023-02-18T03:53:31;4.85;;;2.15;;
73585;SDS011;61865;50.232;18.614;2023-02-18T03:55:54;5.57;;;3.10;;
73585;SDS011;61865;50.232;18.614;2023-02-18T03:58:16;4.30;;;1.90;;
73585;SDS011;61865;50.232;18.614;2023-02-18T04:00:38;4.93;;;2.10;;
73585;SDS011;61865;50.232;18.614;2023-02-18T04:03:00;2.85;;;1.85;;
73585;SDS011;61865;50.232;18.614;2023-02-18T04:05:21;2.75;;;1.85;;
73585;SDS011;61865;50.232;18.614;2023-02-18T04:07:43;3.00;;;1.73;;
73585;SDS011;61865;50.232;18.614;2023-02-18T04:10:06;5.45;;;2.00;;
73585;SDS011;61865;50.232;18.614;2023-02-18T04:12:29;2.67;;;2.00;;
73585;SDS011;61865;50.232;18.614;2023-02-18T04:14:51;3.28;;;1.80;;
73585;SDS011;61865;50.232;18.614;2023-02-18T04:17:13;3.53;;;1.98;;
73585;SDS011;61865;50.232;18.614;2023-02-18T04:19:35;2.88;;;1.75;;
73585;SDS011;61865;50.232;18.614;2023-02-18T04:21:57;2.08;;;1.70;;
73585;SDS011;61865;50.232;18.614;2023-02-18T04:24:19;2.65;;;1.65;;
73585;SDS011;61865;50.232;18.614;2023-02-18T04:26:41;2.70;;;1.80;;
73585;SDS011;61865;50.232;18.614;2023-02-18T04:29:04;2.80;;;1.80;;
73585;SDS011;61865;50.232;18.614;2023-02-18T04:31:26;2.50;;;1.55;;
73585;SDS011;61865;50.232;18.614;2023-02-18T04:33:48;1.67;;;1.58;;
73585;SDS011;61865;50.232;18.614;2023-02-18T04:36:10;3.38;;;1.70;;
73585;SDS011;61865;50.232;18.614;2023-02-18T04:38:32;1.77;;;1.50;;
73585;SDS011;61865;50.232;18.614;2023-02-18T04:40:54;3.47;;;1.58;;
73585;SDS011;61865;50.232;18.614;2023-02-18T04:43:15;2.05;;;1.60;;
73585;SDS011;61865;50.232;18.614;2023-02-18T04:45:39;3.45;;;1.80;;
73585;SDS011;61865;50.232;18.614;2023-02-18T04:48:01;1.88;;;1.55;;
73585;SDS011;61865;50.232;18.614;2023-02-18T04:50:23;1.70;;;1.60;;
73585;SDS011;61865;50.232;18.614;2023-02-18T04:52:45;3.70;;;2.35;;
73585;SDS011;61865;50.232;18.614;2023-02-18T04:55:07;1.60;;;1.50;;
73585;SDS011;61865;50.232;18.614;2023-02-18T04:57:30;4.20;;;1.63;;
73585;SDS011;61865;50.232;18.614;2023-02-18T04:59:51;1.67;;;1.58;;
73585;SDS011;61865;50.232;18.614;2023-02-18T05:02:15;2.33;;;1.60;;
73585;SDS011;61865;50.232;18.614;2023-02-18T05:04:37;3.75;;;2.05;;
73585;SDS011;61865;50.232;18.614;2023-02-18T05:06:58;1.67;;;1.52;;
73585;SDS011;61865;50.232;18.614;2023-02-18T05:09:20;4.10;;;1.77;;
73585;SDS011;61865;50.232;18.614;2023-02-18T05:11:43;3.08;;;1.70;;
73585;SDS011;61865;50.232;18.614;2023-02-18T05:14:06;4.35;;;1.60;;
73585;SDS011;61865;50.232;18.614;2023-02-18T05:16:28;1.77;;;1.67;;
73585;SDS011;61865;50.232;18.614;2023-02-18T05:18:51;1.92;;;1.60;;
73585;SDS011;61865;50.232;18.614;2023-02-18T05:21:13;1.88;;;1.75;;
73585;SDS011;61865;50.232;18.614;2023-02-18T05:23:35;2.03;;;1.70;;
73585;SDS011;61865;50.232;18.614;2023-02-18T05:25:57;3.95;;;1.67;;
73585;SDS011;61865;50.232;18.614;2023-02-18T05:28:19;1.60;;;1.50;;
73585;SDS011;61865;50.232;18.614;2023-02-18T05:30:41;4.40;;;1.83;;
73585;SDS011;61865;50.232;18.614;2023-02-18T05:33:03;2.38;;;1.77;;
73585;SDS011;61865;50.232;18.614;2023-02-18T05:35:26;1.70;;;1.60;;
73585;SDS011;61865;50.232;18.614;2023-02-18T05:37:48;1.75;;;1.55;;
73585;SDS011;61865;50.232;18.614;2023-02-18T05:40:10;2.58;;;1.65;;
73585;SDS011;61865;50.232;18.614;2023-02-18T05:42:32;4.10;;;1.83;;
73585;SDS011;61865;50.232;18.614;2023-02-18T05:44:54;3.17;;;1.70;;
73585;SDS011;61865;50.232;18.614;2023-02-18T05:47:16;2.92;;;1.60;;
73585;SDS011;61865;50.232;18.614;2023-02-18T05:49:39;2.88;;;1.88;;
73585;SDS011;61865;50.232;18.614;2023-02-18T05:52:03;3.20;;;1.88;;
73585;SDS011;61865;50.232;18.614;2023-02-18T05:54:26;6.18;;;2.63;;
73585;SDS011;61865;50.232;18.614;2023-02-18T05:56:48;3.42;;;1.90;;
73585;SDS011;61865;50.232;18.614;2023-02-18T05:59:11;3.60;;;1.92;;
73585;SDS011;61865;50.232;18.614;2023-02-18T06:01:33;2.33;;;1.70;;
73585;SDS011;61865;50.232;18.614;2023-02-18T06:03:55;2.75;;;1.67;;
73585;SDS011;61865;50.232;18.614;2023-02-18T06:06:17;2.38;;;1.70;;
73585;SDS011;61865;50.232;18.614;2023-02-18T06:08:40;3.38;;;1.63;;
73585;SDS011;61865;50.232;18.614;2023-02-18T06:11:02;2.35;;;1.60;;
73585;SDS011;61865;50.232;18.614;2023-02-18T06:13:25;3.90;;;1.80;;
73585;SDS011;61865;50.232;18.614;2023-02-18T06:15:48;2.45;;;2.00;;
73585;SDS011;61865;50.232;18.614;2023-02-18T06:18:10;2.72;;;2.10;;
73585;SDS011;61865;50.232;18.614;2023-02-18T06:20:32;4.85;;;2.05;;
73585;SDS011;61865;50.232;18.614;2023-02-18T06:22:54;4.30;;;2.30;;
73585;SDS011;61865;50.232;18.614;2023-02-18T06:25:18;6.78;;;2.45;;
73585;SDS011;61865;50.232;18.614;2023-02-18T06:27:39;4.22;;;2.00;;
73585;SDS011;61865;50.232;18.614;2023-02-18T06:30:01;4.55;;;2.20;;
73585;SDS011;61865;50.232;18.614;2023-02-18T06:32:23;3.10;;;2.00;;
73585;SDS011;61865;50.232;18.614;2023-02-18T06:34:45;3.67;;;2.05;;
73585;SDS011;61865;50.232;18.614;2023-02-18T06:37:07;2.13;;;1.80;;
73585;SDS011;61865;50.232;18.614;2023-02-18T06:39:29;4.60;;;1.80;;
73585;SDS011;61865;50.232;18.614;2023-02-18T06:41:52;5.03;;;2.03;;
73585;SDS011;61865;50.232;18.614;2023-02-18T06:44:14;4.78;;;1.90;;
73585;SDS011;61865;50.232;18.614;2023-02-18T06:46:36;5.57;;;1.73;;
73585;SDS011;61865;50.232;18.614;2023-02-18T06:48:58;2.42;;;1.60;;
73585;SDS011;61865;50.232;18.614;2023-02-18T06:51:20;3.53;;;1.60;;
73585;SDS011;61865;50.232;18.614;2023-02-18T06:53:42;4.65;;;1.73;;
73585;SDS011;61865;50.232;18.614;2023-02-18T06:56:04;5.15;;;1.83;;
73585;SDS011;61865;50.232;18.614;2023-02-18T06:58:27;2.97;;;1.70;;
73585;SDS011;61865;50.232;18.614;2023-02-18T07:00:49;5.15;;;1.70;;
73585;SDS011;61865;50.232;18.614;2023-02-18T07:03:12;1.48;;;1.38;;
73585;SDS011;61865;50.232;18.614;2023-02-18T07:05:34;3.97;;;1.80;;
73585;SDS011;61865;50.232;18.614;2023-02-18T07:07:56;2.30;;;1.70;;
73585;SDS011;61865;50.232;18.614;2023-02-18T07:10:18;2.20;;;1.60;;
73585;SDS011;61865;50.232;18.614;2023-02-18T07:12:40;4.20;;;1.90;;
73585;SDS011;61865;50.232;18.614;2023-02-18T07:15:03;4.13;;;1.88;;
73585;SDS011;61865;50.232;18.614;2023-02-18T07:17:26;4.78;;;2.13;;
73585;SDS011;61865;50.232;18.614;2023-02-18T07:19:48;3.67;;;1.75;;
73585;SDS011;61865;50.232;18.614;2023-02-18T07:22:10;2.45;;;1.70;;
73585;SDS011;61865;50.232;18.614;2023-02-18T07:24:32;5.22;;;2.30;;
73585;SDS011;61865;50.232;18.614;2023-02-18T07:26:54;3.05;;;1.60;;
73585;SDS011;61865;50.232;18.614;2023-02-18T07:29:16;4.60;;;1.65;;
73585;SDS011;61865;50.232;18.614;2023-02-18T07:31:39;3.70;;;1.70;;
73585;SDS011;61865;50.232;18.614;2023-02-18T07:34:01;3.05;;;1.60;;
73585;SDS011;61865;50.232;18.614;2023-02-18T07:36:23;2.50;;;1.80;;
73585;SDS011;61865;50.232;18.614;2023-02-18T07:38:45;3.83;;;1.80;;
73585;SDS011;61865;50.232;18.614;2023-02-18T07:41:10;5.20;;;1.83;;
73585;SDS011;61865;50.232;18.614;2023-02-18T07:43:36;5.05;;;1.90;;
73585;SDS011;61865;50.232;18.614;2023-02-18T07:45:58;3.60;;;1.90;;
73585;SDS011;61865;50.232;18.614;2023-02-18T07:48:21;3.78;;;1.90;;
73585;SDS011;61865;50.232;18.614;2023-02-18T07:50:44;5.28;;;2.00;;
73585;SDS011;61865;50.232;18.614;2023-02-18T07:53:06;3.58;;;1.92;;
73585;SDS011;61865;50.232;18.614;2023-02-18T07:55:29;2.97;;;1.83;;
73585;SDS011;61865;50.232;18.614;2023-02-18T07:58:08;4.97;;;2.65;;
73585;SDS011;61865;50.232;18.614;2023-02-18T08:00:30;3.25;;;2.13;;
73585;SDS011;61865;50.232;18.614;2023-02-18T08:02:51;5.18;;;3.08;;
73585;SDS011;61865;50.232;18.614;2023-02-18T08:05:15;7.05;;;3.30;;
73585;SDS011;61865;50.232;18.614;2023-02-18T08:07:37;4.88;;;2.47;;
73585;SDS011;61865;50.232;18.614;2023-02-18T08:10:00;5.97;;;3.40;;
73585;SDS011;61865;50.232;18.614;2023-02-18T08:12:22;4.60;;;2.30;;
73585;SDS011;61865;50.232;18.614;2023-02-18T08:14:44;5.97;;;2.92;;
73585;SDS011;61865;50.232;18.614;2023-02-18T08:17:06;7.72;;;2.30;;
73585;SDS011;61865;50.232;18.614;2023-02-18T08:19:28;7.55;;;3.33;;
73585;SDS011;61865;50.232;18.614;2023-02-18T08:21:52;5.82;;;2.60;;
73585;SDS011;61865;50.232;18.614;2023-02-18T08:24:14;6.28;;;2.38;;
73585;SDS011;61865;50.232;18.614;2023-02-18T08:26:35;7.68;;;2.55;;
73585;SDS011;61865;50.232;18.614;2023-02-18T08:28:57;7.25;;;3.58;;
73585;SDS011;61865;50.232;18.614;2023-02-18T08:31:23;12.75;;;4.05;;
73585;SDS011;61865;50.232;18.614;2023-02-18T08:33:46;10.00;;;2.97;;
73585;SDS011;61865;50.232;18.614;2023-02-18T08:36:09;5.63;;;2.75;;
73585;SDS011;61865;50.232;18.614;2023-02-18T08:38:32;8.57;;;3.13;;
73585;SDS011;61865;50.232;18.614;2023-02-18T08:40:59;11.95;;;3.97;;
73585;SDS011;61865;50.232;18.614;2023-02-18T08:43:22;8.95;;;3.30;;
73585;SDS011;61865;50.232;18.614;2023-02-18T08:45:44;10.65;;;3.55;;
73585;SDS011;61865;50.232;18.614;2023-02-18T08:48:06;11.07;;;3.55;;
73585;SDS011;61865;50.232;18.614;2023-02-18T08:50:29;14.65;;;4.13;;
73585;SDS011;61865;50.232;18.614;2023-02-18T08:52:51;10.98;;;3.75;;
73585;SDS011;61865;50.232;18.614;2023-02-18T08:55:15;10.65;;;3.97;;
73585;SDS011;61865;50.232;18.614;2023-02-18T08:57:39;11.65;;;3.90;;
73585;SDS011;61865;50.232;18.614;2023-02-18T09:00:02;10.02;;;3.88;;
73585;SDS011;61865;50.232;18.614;2023-02-18T09:02:25;10.10;;;3.50;;
73585;SDS011;61865;50.232;18.614;2023-02-18T09:04:48;11.90;;;3.88;;
73585;SDS011;61865;50.232;18.614;2023-02-18T09:07:10;15.30;;;4.70;;
73585;SDS011;61865;50.232;18.614;2023-02-18T09:09:32;18.13;;;6.13;;
73585;SDS011;61865;50.232;18.614;2023-02-18T09:11:55;12.48;;;4.13;;
73585;SDS011;61865;50.232;18.614;2023-02-18T09:14:17;13.50;;;4.43;;
73585;SDS011;61865;50.232;18.614;2023-02-18T09:16:39;9.90;;;4.10;;
73585;SDS011;61865;50.232;18.614;2023-02-18T09:19:02;8.25;;;2.97;;
73585;SDS011;61865;50.232;18.614;2023-02-18T09:21:24;6.90;;;3.47;;
73585;SDS011;61865;50.232;18.614;2023-02-18T09:23:47;14.25;;;4.88;;
73585;SDS011;61865;50.232;18.614;2023-02-18T09:26:12;10.25;;;3.50;;
73585;SDS011;61865;50.232;18.614;2023-02-18T09:28:37;10.35;;;3.50;;
73585;SDS011;61865;50.232;18.614;2023-02-18T09:31:03;15.82;;;4.72;;
73585;SDS011;61865;50.232;18.614;2023-02-18T09:33:25;12.73;;;4.18;;
73585;SDS011;61865;50.232;18.614;2023-02-18T09:35:47;10.75;;;3.28;;
73585;SDS011;61865;50.232;18.614;2023-02-18T09:38:10;11.15;;;3.83;;
73585;SDS011;61865;50.232;18.614;2023-02-18T09:40:33;5.20;;;2.42;;
73585;SDS011;61865;50.232;18.614;2023-02-18T09:43:00;6.13;;;2.85;;
73585;SDS011;61865;50.232;18.614;2023-02-18T09:45:24;5.13;;;2.90;;
73585;SDS011;61865;50.232;18.614;2023-02-18T09:47:49;5.03;;;2.47;;
73585;SDS011;61865;50.232;18.614;2023-02-18T09:50:12;6.35;;;2.85;;
73585;SDS011;61865;50.232;18.614;2023-02-18T09:52:39;4.65;;;2.20;;
73585;SDS011;61865;50.232;18.614;2023-02-18T09:55:05;5.85;;;3.20;;
73585;SDS011;61865;50.232;18.614;2023-02-18T09:57:38;4.13;;;1.90;;
73585;SDS011;61865;50.232;18.614;2023-02-18T10:00:05;3.45;;;1.75;;
73585;SDS011;61865;50.232;18.614;2023-02-18T10:02:34;4.45;;;2.10;;
73585;SDS011;61865;50.232;18.614;2023-02-18T10:04:59;5.22;;;2.28;;
73585;SDS011;61865;50.232;18.614;2023-02-18T10:07:23;6.40;;;2.30;;
73585;SDS011;61865;50.232;18.614;2023-02-18T10:09:50;7.43;;;2.55;;
73585;SDS011;61865;50.232;18.614;2023-02-18T10:12:15;3.78;;;2.25;;
73585;SDS011;61865;50.232;18.614;2023-02-18T10:14:39;7.10;;;2.47;;
73585;SDS011;61865;50.232;18.614;2023-02-18T10:17:01;6.05;;;2.28;;
73585;SDS011;61865;50.232;18.614;2023-02-18T10:19:27;10.95;;;2.55;;
73585;SDS011;61865;50.232;18.614;2023-02-18T10:21:52;6.40;;;2.42;;
73585;SDS011;61865;50.232;18.614;2023-02-18T10:24:18;8.77;;;3.20;;
73585;SDS011;61865;50.232;18.614;2023-02-18T10:26:47;4.30;;;2.47;;
73585;SDS011;61865;50.232;18.614;2023-02-18T10:29:13;5.55;;;2.58;;
73585;SDS011;61865;50.232;18.614;2023-02-18T10:31:39;9.05;;;3.00;;
73585;SDS011;61865;50.232;18.614;2023-02-18T10:34:06;4.97;;;2.10;;
73585;SDS011;61865;50.232;18.614;2023-02-18T10:36:43;4.72;;;2.63;;
73585;SDS011;61865;50.232;18.614;2023-02-18T10:39:18;10.18;;;2.95;;
73585;SDS011;61865;50.232;18.614;2023-02-18T10:41:56;6.25;;;2.92;;
73585;SDS011;61865;50.232;18.614;2023-02-18T10:44:27;4.28;;;2.35;;
73585;SDS011;61865;50.232;18.614;2023-02-18T10:46:58;11.95;;;3.00;;
73585;SDS011;61865;50.232;18.614;2023-02-18T10:49:28;8.93;;;2.80;;
73585;SDS011;61865;50.232;18.614;2023-02-18T10:52:04;9.25;;;2.80;;
73585;SDS011;61865;50.232;18.614;2023-02-18T10:54:47;5.72;;;2.90;;
73585;SDS011;61865;50.232;18.614;2023-02-18T10:57:12;6.82;;;3.00;;
73585;SDS011;61865;50.232;18.614;2023-02-18T10:59:38;5.43;;;2.60;;
73585;SDS011;61865;50.232;18.614;2023-02-18T11:02:01;3.15;;;1.83;;
73585;SDS011;61865;50.232;18.614;2023-02-18T11:04:26;5.10;;;2.53;;
73585;SDS011;61865;50.232;18.614;2023-02-18T11:06:54;7.25;;;2.50;;
73585;SDS011;61865;50.232;18.614;2023-02-18T11:09:28;8.05;;;3.00;;
73585;SDS011;61865;50.232;18.614;2023-02-18T11:12:00;6.03;;;2.30;;
73585;SDS011;61865;50.232;18.614;2023-02-18T11:14:34;5.53;;;2.28;;
73585;SDS011;61865;50.232;18.614;2023-02-18T11:17:02;9.43;;;3.03;;
73585;SDS011;61865;50.232;18.614;2023-02-18T11:19:31;5.28;;;2.92;;
73585;SDS011;61865;50.232;18.614;2023-02-18T11:21:56;5.85;;;2.10;;
73585;SDS011;61865;50.232;18.614;2023-02-18T11:24:30;7.15;;;2.65;;
73585;SDS011;61865;50.232;18.614;2023-02-18T11:26:53;9.15;;;2.45;;
73585;SDS011;61865;50.232;18.614;2023-02-18T11:29:19;5.85;;;2.50;;
73585;SDS011;61865;50.232;18.614;2023-02-18T11:31:46;8.65;;;3.03;;
73585;SDS011;61865;50.232;18.614;2023-02-18T11:34:14;7.70;;;2.90;;
73585;SDS011;61865;50.232;18.614;2023-02-18T11:36:38;11.45;;;4.13;;
73585;SDS011;61865;50.232;18.614;2023-02-18T11:39:01;12.55;;;4.00;;
73585;SDS011;61865;50.232;18.614;2023-02-18T11:41:32;18.38;;;6.47;;
73585;SDS011;61865;50.232;18.614;2023-02-18T11:43:56;12.02;;;5.88;;
73585;SDS011;61865;50.232;18.614;2023-02-18T11:46:19;32.47;;;14.75;;
73585;SDS011;61865;50.232;18.614;2023-02-18T11:48:43;17.45;;;7.10;;
73585;SDS011;61865;50.232;18.614;2023-02-18T11:51:09;11.25;;;3.55;;
73585;SDS011;61865;50.232;18.614;2023-02-18T11:53:36;4.05;;;2.42;;
73585;SDS011;61865;50.232;18.614;2023-02-18T11:56:00;9.65;;;4.00;;
73585;SDS011;61865;50.232;18.614;2023-02-18T11:58:25;58.45;;;22.88;;
73585;SDS011;61865;50.232;18.614;2023-02-18T12:00:48;15.63;;;4.93;;
73585;SDS011;61865;50.232;18.614;2023-02-18T12:03:14;8.07;;;3.53;;
73585;SDS011;61865;50.232;18.614;2023-02-18T12:05:48;9.85;;;4.00;;
73585;SDS011;61865;50.232;18.614;2023-02-18T12:08:12;9.48;;;3.75;;
73585;SDS011;61865;50.232;18.614;2023-02-18T12:10:39;8.75;;;3.83;;
73585;SDS011;61865;50.232;18.614;2023-02-18T12:13:05;10.60;;;4.00;;
73585;SDS011;61865;50.232;18.614;2023-02-18T12:15:40;6.80;;;4.20;;
73585;SDS011;61865;50.232;18.614;2023-02-18T12:18:18;12.05;;;4.80;;
73585;SDS011;61865;50.232;18.614;2023-02-18T12:20:53;15.80;;;5.30;;
73585;SDS011;61865;50.232;18.614;2023-02-18T12:23:26;15.45;;;7.53;;
73585;SDS011;61865;50.232;18.614;2023-02-18T12:26:01;25.75;;;11.07;;
73585;SDS011;61865;50.232;18.614;2023-02-18T12:28:33;19.73;;;8.60;;
73585;SDS011;61865;50.232;18.614;2023-02-18T12:31:06;16.60;;;5.35;;
73585;SDS011;61865;50.232;18.614;2023-02-18T12:33:37;13.02;;;6.15;;
73585;SDS011;61865;50.232;18.614;2023-02-18T12:36:10;13.98;;;8.13;;
73585;SDS011;61865;50.232;18.614;2023-02-18T12:38:51;14.75;;;8.93;;
73585;SDS011;61865;50.232;18.614;2023-02-18T12:41:19;17.88;;;7.85;;
73585;SDS011;61865;50.232;18.614;2023-02-18T12:43:51;15.02;;;8.00;;
73585;SDS011;61865;50.232;18.614;2023-02-18T12:46:26;15.88;;;7.43;;
73585;SDS011;61865;50.232;18.614;2023-02-18T12:49:05;19.98;;;8.73;;
73585;SDS011;61865;50.232;18.614;2023-02-18T12:51:52;18.33;;;7.90;;
73585;SDS011;61865;50.232;18.614;2023-02-18T12:54:30;11.20;;;6.13;;
73585;SDS011;61865;50.232;18.614;2023-02-18T12:57:08;15.27;;;6.28;;
73585;SDS011;61865;50.232;18.614;2023-02-18T13:02:45;14.30;;;7.57;;
73585;SDS011;61865;50.232;18.614;2023-02-18T13:05:29;17.83;;;8.40;;
73585;SDS011;61865;50.232;18.614;2023-02-18T13:07:55;20.10;;;10.65;;
73585;SDS011;61865;50.232;18.614;2023-02-18T13:13:12;12.23;;;7.75;;
73585;SDS011;61865;50.232;18.614;2023-02-18T13:15:39;16.77;;;8.35;;
73585;SDS011;61865;50.232;18.614;2023-02-18T13:18:08;12.98;;;7.72;;
73585;SDS011;61865;50.232;18.614;2023-02-18T13:20:37;12.55;;;8.00;;
73585;SDS011;61865;50.232;18.614;2023-02-18T13:23:02;16.33;;;8.88;;
73585;SDS011;61865;50.232;18.614;2023-02-18T13:25:35;17.70;;;8.95;;
73585;SDS011;61865;50.232;18.614;2023-02-18T13:28:00;18.25;;;8.60;;
73585;SDS011;61865;50.232;18.614;2023-02-18T13:30:30;17.52;;;8.45;;
73585;SDS011;61865;50.232;18.614;2023-02-18T13:33:00;156.23;;;62.75;;
73585;SDS011;61865;50.232;18.614;2023-02-18T13:35:33;113.55;;;54.08;;
73585;SDS011;61865;50.232;18.614;2023-02-18T13:38:02;49.33;;;25.17;;
73585;SDS011;61865;50.232;18.614;2023-02-18T13:40:42;29.27;;;14.00;;
73585;SDS011;61865;50.232;18.614;2023-02-18T13:43:18;28.13;;;12.30;;
73585;SDS011;61865;50.232;18.614;2023-02-18T13:45:41;19.92;;;10.23;;
73585;SDS011;61865;50.232;18.614;2023-02-18T13:48:03;23.15;;;10.75;;
73585;SDS011;61865;50.232;18.614;2023-02-18T13:50:46;19.02;;;10.18;;
73585;SDS011;61865;50.232;18.614;2023-02-18T13:53:12;20.65;;;11.13;;
73585;SDS011;61865;50.232;18.614;2023-02-18T13:58:10;27.35;;;12.25;;
73585;SDS011;61865;50.232;18.614;2023-02-18T14:00:38;31.73;;;13.48;;
73585;SDS011;61865;50.232;18.614;2023-02-18T14:03:16;34.20;;;15.95;;
73585;SDS011;61865;50.232;18.614;2023-02-18T14:05:53;35.28;;;18.33;;
73585;SDS011;61865;50.232;18.614;2023-02-18T14:08:28;33.58;;;15.82;;
73585;SDS011;61865;50.232;18.614;2023-02-18T14:13:46;37.42;;;16.63;;
73585;SDS011;61865;50.232;18.614;2023-02-18T14:16:10;44.28;;;21.08;;
73585;SDS011;61865;50.232;18.614;2023-02-18T14:18:33;42.13;;;24.35;;
73585;SDS011;61865;50.232;18.614;2023-02-18T14:21:22;39.95;;;22.15;;
73585;SDS011;61865;50.232;18.614;2023-02-18T14:24:00;43.42;;;21.27;;
73585;SDS011;61865;50.232;18.614;2023-02-18T14:26:24;42.58;;;21.80;;
73585;SDS011;61865;50.232;18.614;2023-02-18T14:28:54;45.28;;;22.42;;
73585;SDS011;61865;50.232;18.614;2023-02-18T14:31:24;43.97;;;23.75;;
73585;SDS011;61865;50.232;18.614;2023-02-18T14:33:54;46.15;;;22.83;;
73585;SDS011;61865;50.232;18.614;2023-02-18T14:36:57;49.35;;;23.33;;
73585;SDS011;61865;50.232;18.614;2023-02-18T14:39:43;48.00;;;24.58;;
73585;SDS011;61865;50.232;18.614;2023-02-18T14:42:18;44.35;;;23.75;;